sensor_id;sensor_type;location;lat;lon;timestamp;pressure;altitude;pressure_sealevel;temperature;humidity
75852;BME280;64500;52.632;20.656;2022-11-20T00:01:10;100266.56;;;-4.45;70.59
75852;BME280;64500;52.632;20.656;2022-11-20T00:03:37;100269.27;;;-4.41;70.49
75852;BME280;64500;52.632;20.656;2022-11-20T00:06:07;100269.19;;;-4.39;70.42
75852;BME280;64500;52.632;20.656;2022-11-20T00:08:34;100264.48;;;-4.35;70.51
75852;BME280;64500;52.632;20.656;2022-11-20T00:11:09;100264.59;;;-4.32;70.38
75852;BME280;64500;52.632;20.656;2022-11-20T00:13:36;100265.26;;;-4.32;70.28
75852;BME280;64500;52.632;20.656;2022-11-20T00:16:06;100267.57;;;-4.36;70.55
75852;BME280;64500;52.632;20.656;2022-11-20T00:18:34;100270.30;;;-4.36;70.54
75852;BME280;64500;52.632;20.656;2022-11-20T00:21:03;100275.21;;;-4.34;70.56
75852;BME280;64500;52.632;20.656;2022-11-20T00:23:31;100274.30;;;-4.30;70.37
75852;BME280;64500;52.632;20.656;2022-11-20T00:26:09;100275.05;;;-4.29;70.31
75852;BME280;64500;52.632;20.656;2022-11-20T00:28:37;100273.11;;;-4.25;70.33
75852;BME280;64500;52.632;20.656;2022-11-20T00:31:06;100272.42;;;-4.25;70.27
75852;BME280;64500;52.632;20.656;2022-11-20T00:33:34;100265.83;;;-4.26;70.19
75852;BME280;64500;52.632;20.656;2022-11-20T00:36:06;100268.13;;;-4.24;70.29
75852;BME280;64500;52.632;20.656;2022-11-20T00:38:34;100267.38;;;-4.20;70.34
75852;BME280;64500;52.632;20.656;2022-11-20T00:41:05;100264.08;;;-4.16;70.05
75852;BME280;64500;52.632;20.656;2022-11-20T00:43:33;100262.27;;;-4.13;69.88
75852;BME280;64500;52.632;20.656;2022-11-20T00:46:09;100263.88;;;-4.12;69.82
75852;BME280;64500;52.632;20.656;2022-11-20T00:48:36;100260.61;;;-4.11;69.91
75852;BME280;64500;52.632;20.656;2022-11-20T00:51:04;100264.94;;;-4.11;69.83
75852;BME280;64500;52.632;20.656;2022-11-20T00:53:31;100265.27;;;-4.11;69.79
75852;BME280;64500;52.632;20.656;2022-11-20T00:56:06;100260.81;;;-4.10;69.73
75852;BME280;64500;52.632;20.656;2022-11-20T00:58:38;100260.52;;;-4.08;69.51
75852;BME280;64500;52.632;20.656;2022-11-20T01:01:44;100262.61;;;-4.08;69.36
75852;BME280;64500;52.632;20.656;2022-11-20T01:04:04;100261.58;;;-4.07;69.48
75852;BME280;64500;52.632;20.656;2022-11-20T01:06:38;100260.40;;;-4.07;69.51
75852;BME280;64500;52.632;20.656;2022-11-20T01:09:12;100263.45;;;-4.04;69.54
75852;BME280;64500;52.632;20.656;2022-11-20T01:11:41;100265.23;;;-4.06;69.14
75852;BME280;64500;52.632;20.656;2022-11-20T01:14:12;100261.98;;;-4.06;69.50
75852;BME280;64500;52.632;20.656;2022-11-20T01:16:42;100259.20;;;-4.01;69.37
75852;BME280;64500;52.632;20.656;2022-11-20T01:19:12;100257.62;;;-3.96;69.56
75852;BME280;64500;52.632;20.656;2022-11-20T01:21:42;100256.03;;;-3.93;69.20
75852;BME280;64500;52.632;20.656;2022-11-20T01:24:15;100253.86;;;-3.95;69.15
75852;BME280;64500;52.632;20.656;2022-11-20T01:26:44;100257.97;;;-3.97;69.22
75852;BME280;64500;52.632;20.656;2022-11-20T01:29:14;100257.32;;;-3.95;69.27
75852;BME280;64500;52.632;20.656;2022-11-20T01:31:42;100258.04;;;-3.94;69.23
75852;BME280;64500;52.632;20.656;2022-11-20T01:34:11;100259.72;;;-3.91;69.19
75852;BME280;64500;52.632;20.656;2022-11-20T01:36:40;100254.77;;;-3.89;69.03
75852;BME280;64500;52.632;20.656;2022-11-20T01:39:11;100253.83;;;-3.91;69.04
75852;BME280;64500;52.632;20.656;2022-11-20T01:41:39;100255.86;;;-3.93;69.18
75852;BME280;64500;52.632;20.656;2022-11-20T01:45:01;100254.64;;;-3.98;68.89
75852;BME280;64500;52.632;20.656;2022-11-20T01:47:40;100253.02;;;-4.00;68.90
75852;BME280;64500;52.632;20.656;2022-11-20T01:50:15;100254.28;;;-4.04;69.04
75852;BME280;64500;52.632;20.656;2022-11-20T01:52:50;100248.55;;;-4.05;69.17
75852;BME280;64500;52.632;20.656;2022-11-20T01:55:26;100245.58;;;-4.06;69.11
75852;BME280;64500;52.632;20.656;2022-11-20T01:57:54;100244.88;;;-4.07;69.05
75852;BME280;64500;52.632;20.656;2022-11-20T02:00:21;100245.39;;;-4.06;69.20
75852;BME280;64500;52.632;20.656;2022-11-20T02:02:54;100243.27;;;-4.07;69.19
75852;BME280;64500;52.632;20.656;2022-11-20T02:08:06;100238.20;;;-4.10;69.46
75852;BME280;64500;52.632;20.656;2022-11-20T02:10:34;100233.94;;;-4.08;69.65
75852;BME280;64500;52.632;20.656;2022-11-20T02:13:01;100235.17;;;-4.08;69.68
75852;BME280;64500;52.632;20.656;2022-11-20T02:15:47;100235.92;;;-4.06;69.70
75852;BME280;64500;52.632;20.656;2022-11-20T02:18:16;100232.63;;;-4.01;69.70
75852;BME280;64500;52.632;20.656;2022-11-20T02:20:45;100224.98;;;-3.97;69.74
75852;BME280;64500;52.632;20.656;2022-11-20T02:26:01;100222.08;;;-4.01;69.60
75852;BME280;64500;52.632;20.656;2022-11-20T02:28:29;100226.20;;;-4.02;69.83
75852;BME280;64500;52.632;20.656;2022-11-20T02:30:56;100219.50;;;-4.01;69.59
75852;BME280;64500;52.632;20.656;2022-11-20T02:33:23;100219.17;;;-4.00;69.80
75852;BME280;64500;52.632;20.656;2022-11-20T02:35:50;100217.64;;;-4.00;70.05
75852;BME280;64500;52.632;20.656;2022-11-20T02:38:17;100219.44;;;-3.98;69.92
75852;BME280;64500;52.632;20.656;2022-11-20T02:40:44;100219.61;;;-3.98;70.01
75852;BME280;64500;52.632;20.656;2022-11-20T02:43:11;100218.95;;;-3.97;70.07
75852;BME280;64500;52.632;20.656;2022-11-20T02:45:38;100217.02;;;-3.97;70.21
75852;BME280;64500;52.632;20.656;2022-11-20T02:48:06;100216.05;;;-3.95;70.17
75852;BME280;64500;52.632;20.656;2022-11-20T02:50:37;100217.23;;;-3.90;69.99
75852;BME280;64500;52.632;20.656;2022-11-20T02:53:04;100218.73;;;-3.87;70.09
75852;BME280;64500;52.632;20.656;2022-11-20T02:55:31;100217.71;;;-3.86;69.99
75852;BME280;64500;52.632;20.656;2022-11-20T02:57:58;100215.14;;;-3.86;70.09
75852;BME280;64500;52.632;20.656;2022-11-20T03:00:30;100211.75;;;-3.89;70.09
75852;BME280;64500;52.632;20.656;2022-11-20T03:02:58;100208.05;;;-3.92;70.02
75852;BME280;64500;52.632;20.656;2022-11-20T03:05:25;100205.33;;;-3.91;70.28
75852;BME280;64500;52.632;20.656;2022-11-20T03:07:52;100203.86;;;-3.88;70.11
75852;BME280;64500;52.632;20.656;2022-11-20T03:10:20;100199.14;;;-3.84;70.02
75852;BME280;64500;52.632;20.656;2022-11-20T03:12:47;100200.33;;;-3.85;70.00
75852;BME280;64500;52.632;20.656;2022-11-20T03:15:14;100198.95;;;-3.85;70.00
75852;BME280;64500;52.632;20.656;2022-11-20T03:17:40;100199.27;;;-3.86;69.94
75852;BME280;64500;52.632;20.656;2022-11-20T03:20:08;100199.64;;;-3.85;69.94
75852;BME280;64500;52.632;20.656;2022-11-20T03:22:35;100207.30;;;-3.83;69.84
75852;BME280;64500;52.632;20.656;2022-11-20T03:25:02;100212.23;;;-3.79;69.90
75852;BME280;64500;52.632;20.656;2022-11-20T03:27:34;100212.47;;;-3.77;69.65
75852;BME280;64500;52.632;20.656;2022-11-20T03:30:01;100210.77;;;-3.76;69.84
75852;BME280;64500;52.632;20.656;2022-11-20T03:32:28;100216.31;;;-3.75;69.75
75852;BME280;64500;52.632;20.656;2022-11-20T03:34:55;100212.52;;;-3.75;69.65
75852;BME280;64500;52.632;20.656;2022-11-20T03:37:21;100209.91;;;-3.76;69.52
75852;BME280;64500;52.632;20.656;2022-11-20T03:39:49;100209.45;;;-3.74;69.49
75852;BME280;64500;52.632;20.656;2022-11-20T03:42:15;100205.54;;;-3.72;69.43
75852;BME280;64500;52.632;20.656;2022-11-20T03:45:01;100205.50;;;-3.68;69.38
75852;BME280;64500;52.632;20.656;2022-11-20T03:47:28;100201.40;;;-3.66;69.43
75852;BME280;64500;52.632;20.656;2022-11-20T03:49:55;100202.23;;;-3.67;69.39
75852;BME280;64500;52.632;20.656;2022-11-20T03:52:22;100198.75;;;-3.68;69.17
75852;BME280;64500;52.632;20.656;2022-11-20T03:54:49;100204.40;;;-3.70;69.30
75852;BME280;64500;52.632;20.656;2022-11-20T03:57:16;100207.02;;;-3.69;69.32
75852;BME280;64500;52.632;20.656;2022-11-20T03:59:44;100205.34;;;-3.62;69.41
75852;BME280;64500;52.632;20.656;2022-11-20T04:02:11;100206.52;;;-3.57;69.25
75852;BME280;64500;52.632;20.656;2022-11-20T04:04:38;100207.46;;;-3.54;68.84
75852;BME280;64500;52.632;20.656;2022-11-20T04:07:05;100207.44;;;-3.55;68.86
75852;BME280;64500;52.632;20.656;2022-11-20T04:09:31;100203.84;;;-3.54;68.71
75852;BME280;64500;52.632;20.656;2022-11-20T04:11:58;100199.66;;;-3.55;68.86
75852;BME280;64500;52.632;20.656;2022-11-20T04:14:25;100197.71;;;-3.57;68.88
75852;BME280;64500;52.632;20.656;2022-11-20T04:16:52;100194.77;;;-3.57;68.95
75852;BME280;64500;52.632;20.656;2022-11-20T04:19:19;100192.86;;;-3.57;68.87
75852;BME280;64500;52.632;20.656;2022-11-20T04:21:46;100193.55;;;-3.58;68.69
75852;BME280;64500;52.632;20.656;2022-11-20T04:24:12;100195.75;;;-3.59;68.71
75852;BME280;64500;52.632;20.656;2022-11-20T04:26:40;100195.61;;;-3.58;68.81
75852;BME280;64500;52.632;20.656;2022-11-20T04:29:11;100191.54;;;-3.61;68.65
75852;BME280;64500;52.632;20.656;2022-11-20T04:31:38;100190.23;;;-3.64;68.78
75852;BME280;64500;52.632;20.656;2022-11-20T04:34:06;100187.27;;;-3.66;68.90
75852;BME280;64500;52.632;20.656;2022-11-20T04:36:34;100184.56;;;-3.63;69.00
75852;BME280;64500;52.632;20.656;2022-11-20T04:39:04;100185.58;;;-3.58;69.19
75852;BME280;64500;52.632;20.656;2022-11-20T04:41:33;100186.90;;;-3.54;69.04
75852;BME280;64500;52.632;20.656;2022-11-20T04:44:02;100182.32;;;-3.52;68.88
75852;BME280;64500;52.632;20.656;2022-11-20T04:46:35;100189.23;;;-3.51;69.01
75852;BME280;64500;52.632;20.656;2022-11-20T04:49:03;100184.73;;;-3.52;69.01
75852;BME280;64500;52.632;20.656;2022-11-20T04:51:30;100186.33;;;-3.50;69.16
75852;BME280;64500;52.632;20.656;2022-11-20T04:53:57;100188.15;;;-3.47;69.11
75852;BME280;64500;52.632;20.656;2022-11-20T04:56:24;100183.00;;;-3.46;68.93
75852;BME280;64500;52.632;20.656;2022-11-20T04:58:51;100178.23;;;-3.43;68.87
75852;BME280;64500;52.632;20.656;2022-11-20T05:01:20;100182.42;;;-3.42;68.57
75852;BME280;64500;52.632;20.656;2022-11-20T05:03:48;100179.56;;;-3.40;68.78
75852;BME280;64500;52.632;20.656;2022-11-20T05:06:17;100179.88;;;-3.40;68.64
75852;BME280;64500;52.632;20.656;2022-11-20T05:08:45;100178.67;;;-3.41;68.60
75852;BME280;64500;52.632;20.656;2022-11-20T05:11:17;100174.39;;;-3.39;68.81
75852;BME280;64500;52.632;20.656;2022-11-20T05:13:44;100167.67;;;-3.39;68.62
75852;BME280;64500;52.632;20.656;2022-11-20T05:16:14;100164.73;;;-3.39;68.42
75852;BME280;64500;52.632;20.656;2022-11-20T05:18:41;100164.55;;;-3.39;68.42
75852;BME280;64500;52.632;20.656;2022-11-20T05:21:09;100166.96;;;-3.39;68.62
75852;BME280;64500;52.632;20.656;2022-11-20T05:23:37;100165.89;;;-3.40;68.50
75852;BME280;64500;52.632;20.656;2022-11-20T05:26:06;100172.45;;;-3.40;68.52
75852;BME280;64500;52.632;20.656;2022-11-20T05:28:33;100165.64;;;-3.37;68.69
75852;BME280;64500;52.632;20.656;2022-11-20T05:31:09;100167.33;;;-3.31;68.57
75852;BME280;64500;52.632;20.656;2022-11-20T05:33:39;100169.95;;;-3.31;68.46
75852;BME280;64500;52.632;20.656;2022-11-20T05:36:08;100173.45;;;-3.29;68.61
75852;BME280;64500;52.632;20.656;2022-11-20T05:38:36;100171.30;;;-3.26;68.49
75852;BME280;64500;52.632;20.656;2022-11-20T05:41:14;100171.87;;;-3.24;68.35
75852;BME280;64500;52.632;20.656;2022-11-20T05:43:44;100169.80;;;-3.24;68.33
75852;BME280;64500;52.632;20.656;2022-11-20T05:46:13;100171.79;;;-3.27;68.18
75852;BME280;64500;52.632;20.656;2022-11-20T05:48:42;100172.94;;;-3.29;68.35
75852;BME280;64500;52.632;20.656;2022-11-20T05:51:12;100172.56;;;-3.30;68.44
75852;BME280;64500;52.632;20.656;2022-11-20T05:53:40;100170.01;;;-3.28;68.38
75852;BME280;64500;52.632;20.656;2022-11-20T05:56:10;100167.67;;;-3.32;68.26
75852;BME280;64500;52.632;20.656;2022-11-20T05:58:37;100165.37;;;-3.34;68.32
75852;BME280;64500;52.632;20.656;2022-11-20T06:03:38;100169.53;;;-3.33;68.50
75852;BME280;64500;52.632;20.656;2022-11-20T06:06:06;100169.09;;;-3.37;68.58
75852;BME280;64500;52.632;20.656;2022-11-20T06:08:33;100165.84;;;-3.42;68.73
75852;BME280;64500;52.632;20.656;2022-11-20T06:11:06;100164.86;;;-3.46;68.74
75852;BME280;64500;52.632;20.656;2022-11-20T06:13:33;100168.34;;;-3.45;69.16
75852;BME280;64500;52.632;20.656;2022-11-20T06:16:01;100167.19;;;-3.43;69.21
75852;BME280;64500;52.632;20.656;2022-11-20T06:18:29;100170.20;;;-3.41;69.17
75852;BME280;64500;52.632;20.656;2022-11-20T06:21:05;100167.77;;;-3.41;69.23
75852;BME280;64500;52.632;20.656;2022-11-20T06:23:33;100168.02;;;-3.38;69.35
75852;BME280;64500;52.632;20.656;2022-11-20T06:26:15;100168.37;;;-3.38;69.47
75852;BME280;64500;52.632;20.656;2022-11-20T06:28:42;100167.98;;;-3.46;69.60
75852;BME280;64500;52.632;20.656;2022-11-20T06:31:12;100161.60;;;-3.51;69.70
75852;BME280;64500;52.632;20.656;2022-11-20T06:33:40;100166.10;;;-3.56;69.91
75852;BME280;64500;52.632;20.656;2022-11-20T06:36:09;100164.32;;;-3.52;70.10
75852;BME280;64500;52.632;20.656;2022-11-20T06:38:37;100167.77;;;-3.47;70.10
75852;BME280;64500;52.632;20.656;2022-11-20T06:41:13;100169.77;;;-3.44;69.90
75852;BME280;64500;52.632;20.656;2022-11-20T06:43:40;100164.67;;;-3.46;70.03
75852;BME280;64500;52.632;20.656;2022-11-20T06:46:09;100167.48;;;-3.50;69.85
75852;BME280;64500;52.632;20.656;2022-11-20T06:48:36;100165.48;;;-3.54;69.82
75852;BME280;64500;52.632;20.656;2022-11-20T06:51:05;100166.23;;;-3.52;69.88
75852;BME280;64500;52.632;20.656;2022-11-20T06:53:33;100168.05;;;-3.49;69.85
75852;BME280;64500;52.632;20.656;2022-11-20T06:56:00;100160.60;;;-3.50;69.93
75852;BME280;64500;52.632;20.656;2022-11-20T06:58:29;100157.33;;;-3.49;69.99
75852;BME280;64500;52.632;20.656;2022-11-20T07:01:02;100153.71;;;-3.55;70.15
75852;BME280;64500;52.632;20.656;2022-11-20T07:03:29;100151.16;;;-3.59;70.06
75852;BME280;64500;52.632;20.656;2022-11-20T07:05:58;100143.50;;;-3.62;70.30
75852;BME280;64500;52.632;20.656;2022-11-20T07:08:26;100148.75;;;-3.59;70.46
75852;BME280;64500;52.632;20.656;2022-11-20T07:11:00;100148.89;;;-3.61;70.31
75852;BME280;64500;52.632;20.656;2022-11-20T07:13:28;100149.38;;;-3.61;70.23
75852;BME280;64500;52.632;20.656;2022-11-20T07:16:00;100147.08;;;-3.57;70.37
75852;BME280;64500;52.632;20.656;2022-11-20T07:18:27;100146.42;;;-3.56;70.33
75852;BME280;64500;52.632;20.656;2022-11-20T07:20:54;100142.53;;;-3.59;70.38
75852;BME280;64500;52.632;20.656;2022-11-20T07:23:21;100140.88;;;-3.57;70.42
75852;BME280;64500;52.632;20.656;2022-11-20T07:25:49;100140.98;;;-3.53;70.47
75852;BME280;64500;52.632;20.656;2022-11-20T07:28:16;100138.48;;;-3.50;70.56
75852;BME280;64500;52.632;20.656;2022-11-20T07:30:52;100138.36;;;-3.48;70.52
75852;BME280;64500;52.632;20.656;2022-11-20T07:33:20;100137.42;;;-3.44;70.52
75852;BME280;64500;52.632;20.656;2022-11-20T07:35:47;100133.83;;;-3.43;70.36
75852;BME280;64500;52.632;20.656;2022-11-20T07:38:14;100132.52;;;-3.41;70.53
75852;BME280;64500;52.632;20.656;2022-11-20T07:40:41;100129.77;;;-3.40;70.61
75852;BME280;64500;52.632;20.656;2022-11-20T07:43:08;100125.29;;;-3.40;70.76
75852;BME280;64500;52.632;20.656;2022-11-20T07:45:35;100119.65;;;-3.38;70.66
75852;BME280;64500;52.632;20.656;2022-11-20T07:48:02;100124.30;;;-3.31;70.72
75852;BME280;64500;52.632;20.656;2022-11-20T07:50:29;100122.62;;;-3.23;70.69
75852;BME280;64500;52.632;20.656;2022-11-20T07:53:05;100125.26;;;-3.09;71.15
75852;BME280;64500;52.632;20.656;2022-11-20T07:55:32;100123.95;;;-2.86;71.39
75852;BME280;64500;52.632;20.656;2022-11-20T07:57:59;100124.92;;;-2.61;71.43
75852;BME280;64500;52.632;20.656;2022-11-20T08:00:27;100125.86;;;-2.44;70.53
75852;BME280;64500;52.632;20.656;2022-11-20T08:02:54;100117.05;;;-2.43;70.25
75852;BME280;64500;52.632;20.656;2022-11-20T08:05:21;100112.19;;;-2.44;69.44
75852;BME280;64500;52.632;20.656;2022-11-20T08:07:48;100117.88;;;-2.44;69.71
75852;BME280;64500;52.632;20.656;2022-11-20T08:10:16;100122.17;;;-2.39;69.72
75852;BME280;64500;52.632;20.656;2022-11-20T08:12:47;100117.50;;;-2.31;69.91
75852;BME280;64500;52.632;20.656;2022-11-20T08:15:34;100120.30;;;-2.15;70.23
75852;BME280;64500;52.632;20.656;2022-11-20T08:18:11;100120.95;;;-2.10;69.47
75852;BME280;64500;52.632;20.656;2022-11-20T08:20:38;100119.10;;;-2.07;69.47
75852;BME280;64500;52.632;20.656;2022-11-20T08:23:07;100118.05;;;-2.08;68.90
75852;BME280;64500;52.632;20.656;2022-11-20T08:25:35;100116.95;;;-2.10;68.91
75852;BME280;64500;52.632;20.656;2022-11-20T08:28:06;100116.52;;;-2.14;68.75
75852;BME280;64500;52.632;20.656;2022-11-20T08:30:33;100119.48;;;-2.20;68.86
75852;BME280;64500;52.632;20.656;2022-11-20T08:33:03;100120.62;;;-2.24;68.75
75852;BME280;64500;52.632;20.656;2022-11-20T08:35:37;100116.52;;;-2.22;68.98
75852;BME280;64500;52.632;20.656;2022-11-20T08:38:05;100115.31;;;-2.22;68.65
75852;BME280;64500;52.632;20.656;2022-11-20T08:40:34;100116.06;;;-2.18;68.98
75852;BME280;64500;52.632;20.656;2022-11-20T08:43:01;100109.12;;;-2.19;68.47
75852;BME280;64500;52.632;20.656;2022-11-20T08:45:28;100111.41;;;-2.17;68.85
75852;BME280;64500;52.632;20.656;2022-11-20T08:47:59;100106.64;;;-2.06;68.70
75852;BME280;64500;52.632;20.656;2022-11-20T08:50:26;100102.98;;;-2.15;67.94
75852;BME280;64500;52.632;20.656;2022-11-20T08:52:54;100105.20;;;-2.17;68.52
75852;BME280;64500;52.632;20.656;2022-11-20T08:55:21;100103.73;;;-2.05;68.85
75852;BME280;64500;52.632;20.656;2022-11-20T08:57:47;100101.21;;;-1.94;68.29
75852;BME280;64500;52.632;20.656;2022-11-20T09:00:15;100098.64;;;-1.84;68.31
75852;BME280;64500;52.632;20.656;2022-11-20T09:02:42;100097.46;;;-1.74;68.45
75852;BME280;64500;52.632;20.656;2022-11-20T09:05:09;100093.29;;;-1.66;68.10
75852;BME280;64500;52.632;20.656;2022-11-20T09:07:36;100093.88;;;-1.63;68.05
75852;BME280;64500;52.632;20.656;2022-11-20T09:10:04;100090.03;;;-1.65;67.58
75852;BME280;64500;52.632;20.656;2022-11-20T09:12:31;100089.20;;;-1.55;68.05
75852;BME280;64500;52.632;20.656;2022-11-20T09:14:58;100088.61;;;-1.48;67.69
75852;BME280;64500;52.632;20.656;2022-11-20T09:17:25;100087.52;;;-1.34;68.19
75852;BME280;64500;52.632;20.656;2022-11-20T09:19:53;100087.59;;;-1.30;67.29
75852;BME280;64500;52.632;20.656;2022-11-20T09:22:19;100089.03;;;-1.27;67.22
75852;BME280;64500;52.632;20.656;2022-11-20T09:24:46;100089.45;;;-1.13;67.87
75852;BME280;64500;52.632;20.656;2022-11-20T09:27:13;100089.16;;;-1.01;67.11
75852;BME280;64500;52.632;20.656;2022-11-20T09:29:41;100087.64;;;-1.09;66.15
75852;BME280;64500;52.632;20.656;2022-11-20T09:32:07;100084.77;;;-1.23;65.41
75852;BME280;64500;52.632;20.656;2022-11-20T09:34:35;100084.98;;;-1.31;65.43
75852;BME280;64500;52.632;20.656;2022-11-20T09:37:02;100087.01;;;-1.33;65.62
75852;BME280;64500;52.632;20.656;2022-11-20T09:39:29;100082.48;;;-1.34;66.46
75852;BME280;64500;52.632;20.656;2022-11-20T09:45:14;100074.40;;;-1.21;66.96
75852;BME280;64500;52.632;20.656;2022-11-20T09:56:10;100067.22;;;-1.06;65.35
75852;BME280;64500;52.632;20.656;2022-11-20T09:58:41;100065.64;;;-0.96;65.77
75852;BME280;64500;52.632;20.656;2022-11-20T10:01:13;100065.02;;;-0.82;65.81
75852;BME280;64500;52.632;20.656;2022-11-20T10:04:02;100056.65;;;-0.75;65.65
75852;BME280;64500;52.632;20.656;2022-11-20T10:06:37;100059.65;;;-0.61;66.21
75852;BME280;64500;52.632;20.656;2022-11-20T10:25:39;100042.98;;;-0.71;63.30
75852;BME280;64500;52.632;20.656;2022-11-20T10:30:45;100042.19;;;-0.67;62.94
75852;BME280;64500;52.632;20.656;2022-11-20T10:33:22;100040.13;;;-0.54;64.13
75852;BME280;64500;52.632;20.656;2022-11-20T10:38:36;100034.27;;;-0.27;63.72
75852;BME280;64500;52.632;20.656;2022-11-20T10:41:05;100028.94;;;-0.24;63.56
75852;BME280;64500;52.632;20.656;2022-11-20T10:44:20;100031.02;;;-0.24;62.92
75852;BME280;64500;52.632;20.656;2022-11-20T10:47:12;100028.99;;;-0.31;63.12
75852;BME280;64500;52.632;20.656;2022-11-20T10:49:41;100027.39;;;-0.35;62.29
75852;BME280;64500;52.632;20.656;2022-11-20T10:57:53;100023.19;;;-0.61;61.50
75852;BME280;64500;52.632;20.656;2022-11-20T11:00:22;100023.77;;;-0.58;62.28
75852;BME280;64500;52.632;20.656;2022-11-20T11:02:54;100022.95;;;-0.53;62.09
75852;BME280;64500;52.632;20.656;2022-11-20T11:05:31;100020.67;;;-0.56;61.26
75852;BME280;64500;52.632;20.656;2022-11-20T11:08:02;100017.90;;;-0.55;62.15
75852;BME280;64500;52.632;20.656;2022-11-20T11:12:58;100008.86;;;-0.43;62.20
75852;BME280;64500;52.632;20.656;2022-11-20T11:15:39;100007.97;;;-0.45;62.11
75852;BME280;64500;52.632;20.656;2022-11-20T11:18:10;100011.80;;;-0.44;62.49
75852;BME280;64500;52.632;20.656;2022-11-20T11:20:38;100005.27;;;-0.39;62.64
75852;BME280;64500;52.632;20.656;2022-11-20T11:23:32;100006.48;;;-0.39;61.84
75852;BME280;64500;52.632;20.656;2022-11-20T11:26:00;99996.06;;;-0.39;61.98
75852;BME280;64500;52.632;20.656;2022-11-20T11:28:28;99998.84;;;-0.40;61.84
75852;BME280;64500;52.632;20.656;2022-11-20T11:30:55;99997.55;;;-0.44;62.38
75852;BME280;64500;52.632;20.656;2022-11-20T11:33:27;99998.97;;;-0.42;62.11
75852;BME280;64500;52.632;20.656;2022-11-20T11:35:55;99995.30;;;-0.45;61.74
75852;BME280;64500;52.632;20.656;2022-11-20T11:38:36;99994.16;;;-0.52;61.74
75852;BME280;64500;52.632;20.656;2022-11-20T11:41:05;99998.63;;;-0.54;62.14
75852;BME280;64500;52.632;20.656;2022-11-20T11:43:35;99995.39;;;-0.50;62.93
75852;BME280;64500;52.632;20.656;2022-11-20T11:46:31;99989.40;;;-0.44;62.66
75852;BME280;64500;52.632;20.656;2022-11-20T11:54:34;99977.48;;;-0.52;61.37
75852;BME280;64500;52.632;20.656;2022-11-20T11:57:12;99971.99;;;-0.59;62.02
75852;BME280;64500;52.632;20.656;2022-11-20T12:00:16;99976.94;;;-0.78;62.41
75852;BME280;64500;52.632;20.656;2022-11-20T12:05:18;99978.94;;;-0.94;63.30
75852;BME280;64500;52.632;20.656;2022-11-20T12:07:53;99978.92;;;-0.95;63.34
75852;BME280;64500;52.632;20.656;2022-11-20T12:15:54;99981.17;;;-0.96;63.91
75852;BME280;64500;52.632;20.656;2022-11-20T12:18:22;99983.73;;;-0.88;63.96
75852;BME280;64500;52.632;20.656;2022-11-20T12:21:06;99980.88;;;-0.82;63.94
75852;BME280;64500;52.632;20.656;2022-11-20T12:23:53;99976.55;;;-0.80;63.64
75852;BME280;64500;52.632;20.656;2022-11-20T12:29:26;99973.08;;;-0.79;63.81
75852;BME280;64500;52.632;20.656;2022-11-20T12:35:12;99967.50;;;-0.82;64.03
75852;BME280;64500;52.632;20.656;2022-11-20T12:43:46;99945.96;;;-0.83;64.15
75852;BME280;64500;52.632;20.656;2022-11-20T12:49:37;99944.13;;;-0.78;64.18
75852;BME280;64500;52.632;20.656;2022-11-20T12:52:18;99949.16;;;-0.78;64.51
75852;BME280;64500;52.632;20.656;2022-11-20T12:57:45;99939.89;;;-0.72;64.43
75852;BME280;64500;52.632;20.656;2022-11-20T13:00:24;99936.85;;;-0.65;64.54
75852;BME280;64500;52.632;20.656;2022-11-20T13:08:22;99932.11;;;-0.70;63.89
75852;BME280;64500;52.632;20.656;2022-11-20T13:13:33;99933.33;;;-0.70;64.61
75852;BME280;64500;52.632;20.656;2022-11-20T13:19:21;99936.10;;;-0.57;64.55
75852;BME280;64500;52.632;20.656;2022-11-20T13:21:50;99937.39;;;-0.51;64.79
75852;BME280;64500;52.632;20.656;2022-11-20T13:29:35;99930.22;;;-0.41;64.45
75852;BME280;64500;52.632;20.656;2022-11-20T13:32:20;99928.30;;;-0.42;64.59
75852;BME280;64500;52.632;20.656;2022-11-20T13:34:54;99920.98;;;-0.45;64.08
75852;BME280;64500;52.632;20.656;2022-11-20T13:37:36;99916.61;;;-0.48;64.05
75852;BME280;64500;52.632;20.656;2022-11-20T13:45:21;99904.83;;;-0.59;63.94
75852;BME280;64500;52.632;20.656;2022-11-20T13:47:50;99900.27;;;-0.61;63.92
75852;BME280;64500;52.632;20.656;2022-11-20T13:50:18;99890.51;;;-0.65;64.06
75852;BME280;64500;52.632;20.656;2022-11-20T13:55:54;99872.38;;;-0.72;64.30
75852;BME280;64500;52.632;20.656;2022-11-20T14:01:23;99867.14;;;-0.74;63.46
75852;BME280;64500;52.632;20.656;2022-11-20T14:03:52;99869.20;;;-0.75;63.62
75852;BME280;64500;52.632;20.656;2022-11-20T14:06:29;99869.48;;;-0.80;63.86
75852;BME280;64500;52.632;20.656;2022-11-20T14:08:59;99868.62;;;-0.80;64.31
75852;BME280;64500;52.632;20.656;2022-11-20T14:11:28;99870.73;;;-0.78;64.25
75852;BME280;64500;52.632;20.656;2022-11-20T14:13:59;99880.32;;;-0.75;64.04
75852;BME280;64500;52.632;20.656;2022-11-20T14:16:28;99880.17;;;-0.73;64.23
75852;BME280;64500;52.632;20.656;2022-11-20T14:18:57;99880.16;;;-0.73;64.33
75852;BME280;64500;52.632;20.656;2022-11-20T14:21:26;99882.23;;;-0.76;64.32
75852;BME280;64500;52.632;20.656;2022-11-20T14:24:05;99877.09;;;-0.82;64.15
75852;BME280;64500;52.632;20.656;2022-11-20T14:26:33;99877.19;;;-0.88;64.24
75852;BME280;64500;52.632;20.656;2022-11-20T14:29:00;99878.06;;;-0.88;64.62
75852;BME280;64500;52.632;20.656;2022-11-20T14:31:28;99881.35;;;-0.88;64.17
75852;BME280;64500;52.632;20.656;2022-11-20T14:33:56;99879.77;;;-0.90;64.73
75852;BME280;64500;52.632;20.656;2022-11-20T14:36:24;99877.49;;;-0.91;64.43
75852;BME280;64500;52.632;20.656;2022-11-20T14:38:52;99870.47;;;-0.97;64.55
75852;BME280;64500;52.632;20.656;2022-11-20T14:41:23;99861.58;;;-1.00;64.78
75852;BME280;64500;52.632;20.656;2022-11-20T14:43:57;99858.91;;;-1.05;64.67
75852;BME280;64500;52.632;20.656;2022-11-20T14:46:25;99858.30;;;-1.11;65.46
75852;BME280;64500;52.632;20.656;2022-11-20T14:48:56;99861.58;;;-1.13;65.40